createdAt,value
2022-09-01T00:01:41.477Z,1.27
2022-09-01T00:04:44.712Z,1.15
2022-09-01T00:07:46.729Z,1.23
2022-09-01T00:10:49.046Z,1.75
2022-09-01T00:13:51.531Z,1.30
2022-09-01T00:16:54.189Z,1.13
2022-09-01T00:19:56.233Z,1.48
2022-09-01T00:22:58.293Z,1.20
2022-09-01T00:26:00.351Z,1.20
2022-09-01T00:29:02.327Z,1.30
2022-09-01T00:32:04.940Z,1.20
2022-09-01T00:35:08.780Z,1.27
2022-09-01T00:38:11.181Z,1.30
2022-09-01T00:41:13.685Z,1.20
2022-09-01T00:44:19.008Z,0.98
2022-09-01T00:47:21.020Z,1.25
2022-09-01T00:50:25.462Z,0.90
2022-09-01T00:53:27.722Z,1.63
2022-09-01T00:56:30.648Z,1.30
2022-09-01T00:59:32.925Z,1.23
2022-09-01T01:02:36.007Z,1.17
2022-09-01T01:05:41.440Z,1.35
2022-09-01T01:08:58.060Z,1.03
2022-09-01T01:12:02.408Z,1.10
2022-09-01T01:15:06.993Z,1.25
2022-09-01T01:18:09.282Z,1.02
2022-09-01T01:21:36.399Z,1.42
2022-09-01T01:24:38.366Z,1.20
2022-09-01T01:27:43.659Z,1.20
2022-09-01T01:30:51.118Z,1.42
2022-09-01T01:33:55.247Z,1.50
2022-09-01T01:36:59.912Z,1.10
2022-09-01T01:40:03.041Z,1.50
2022-09-01T01:43:05.470Z,1.00
2022-09-01T01:46:08.497Z,1.83
2022-09-01T01:49:20.055Z,1.98
2022-09-01T01:52:26.851Z,1.83
2022-09-01T01:55:30.884Z,2.00
2022-09-01T01:58:36.120Z,1.70
2022-09-01T02:01:49.222Z,1.45
2022-09-01T02:04:51.349Z,1.60
2022-09-01T02:07:56.051Z,2.03
2022-09-01T02:11:00.796Z,1.60
2022-09-01T02:14:06.689Z,1.73
2022-09-01T02:17:08.818Z,2.08
2022-09-01T02:20:11.622Z,2.05
2022-09-01T02:23:15.873Z,1.90
2022-09-01T02:26:19.294Z,1.83
2022-09-01T02:29:26.560Z,2.28
2022-09-01T02:32:28.793Z,2.50
2022-09-01T02:35:34.328Z,2.22
2022-09-01T02:38:36.575Z,2.35
2022-09-01T02:41:41.336Z,2.10
2022-09-01T02:44:44.339Z,2.15
2022-09-01T02:47:48.591Z,2.28
2022-09-01T02:50:51.446Z,2.10
2022-09-01T02:53:53.900Z,2.10
2022-09-01T02:56:56.181Z,1.87
2022-09-01T02:59:59.155Z,2.35
2022-09-01T03:03:02.469Z,2.10
2022-09-01T03:06:09.268Z,1.60
2022-09-01T03:09:14.652Z,2.28
2022-09-01T03:12:16.886Z,2.40
2022-09-01T03:15:18.905Z,2.90
2022-09-01T03:18:21.280Z,3.17
2022-09-01T03:21:23.715Z,3.53
2022-09-01T03:24:25.755Z,3.33
2022-09-01T03:27:27.840Z,2.90
2022-09-01T03:30:30.601Z,3.30
2022-09-01T03:33:33.011Z,3.30
2022-09-01T03:36:35.220Z,3.22
2022-09-01T03:39:37.232Z,4.57
2022-09-01T03:42:39.652Z,3.57
2022-09-01T03:45:41.781Z,3.63
2022-09-01T03:48:44.039Z,3.10
2022-09-01T03:51:46.204Z,3.20
2022-09-01T03:54:54.014Z,3.45
2022-09-01T03:57:57.856Z,3.67
2022-09-01T04:01:02.977Z,4.20
2022-09-01T04:04:06.709Z,4.00
2022-09-01T04:07:09.368Z,3.50
2022-09-01T04:10:18.659Z,3.30
2022-09-01T04:13:20.703Z,3.55
2022-09-01T04:16:42.933Z,3.53
2022-09-01T04:19:45.831Z,3.45
2022-09-01T04:22:50.593Z,2.83
2022-09-01T04:26:10.035Z,3.30
2022-09-01T04:29:12.832Z,3.20
2022-09-01T04:32:15.975Z,2.63
2022-09-01T04:35:32.660Z,2.78
2022-09-01T04:38:40.335Z,3.07
2022-09-01T04:41:46.251Z,2.90
2022-09-01T04:44:48.820Z,3.28
2022-09-01T04:47:51.283Z,3.20
2022-09-01T04:50:56.425Z,2.97
2022-09-01T04:54:03.729Z,2.70
2022-09-01T04:57:07.185Z,2.53
2022-09-01T05:00:22.359Z,2.58
2022-09-01T05:03:24.870Z,2.83
2022-09-01T05:06:39.985Z,2.92
2022-09-01T05:09:42.044Z,2.83
2022-09-01T05:13:09.924Z,2.53
2022-09-01T05:16:15.231Z,2.83
2022-09-01T05:19:20.987Z,3.15
2022-09-01T05:22:24.203Z,3.85
2022-09-01T05:25:30.953Z,3.50
2022-09-01T05:28:32.975Z,3.50
2022-09-01T05:31:38.087Z,3.53
2022-09-01T05:34:41.029Z,3.47
2022-09-01T05:37:43.560Z,2.75
2022-09-01T05:40:55.040Z,2.70
2022-09-01T05:44:00.534Z,2.42
2022-09-01T05:47:05.499Z,3.13
2022-09-01T05:50:14.248Z,3.25
2022-09-01T05:53:17.631Z,3.38
2022-09-01T05:56:24.051Z,3.10
2022-09-01T05:59:26.672Z,2.60
2022-09-01T06:02:34.251Z,2.95
2022-09-01T06:05:36.772Z,3.38
2022-09-01T06:08:46.724Z,3.40
2022-09-01T06:11:49.509Z,2.60
2022-09-01T06:14:55.616Z,2.72
2022-09-01T06:17:58.931Z,3.30
2022-09-01T06:21:04.282Z,3.40
2022-09-01T06:24:07.471Z,3.30
2022-09-01T06:27:10.161Z,3.27
2022-09-01T06:30:23.027Z,2.45
2022-09-01T06:33:47.738Z,3.28
2022-09-01T06:36:53.266Z,2.60
2022-09-01T06:39:57.671Z,2.60
2022-09-01T06:43:02.381Z,2.40
2022-09-01T06:46:04.580Z,2.38
2022-09-01T06:49:11.632Z,3.60
2022-09-01T06:52:14.091Z,3.17
2022-09-01T06:55:17.235Z,2.60
2022-09-01T06:58:21.413Z,3.10
2022-09-01T07:01:28.074Z,2.90
2022-09-01T07:04:32.213Z,2.65
2022-09-01T07:08:05.189Z,2.70
2022-09-01T07:14:24.191Z,2.40
2022-09-01T07:17:27.020Z,2.58
2022-09-01T07:20:29.523Z,2.15
2022-09-01T07:26:55.723Z,2.03
2022-09-01T07:29:58.141Z,2.60
2022-09-01T07:33:41.666Z,1.85
2022-09-01T07:36:26.773Z,2.03
2022-09-01T07:43:08.403Z,2.13
2022-09-01T07:47:19.436Z,2.47
2022-09-01T07:53:38.329Z,2.33
2022-09-01T07:56:47.231Z,1.75
2022-09-01T07:59:53.998Z,2.10
2022-09-01T08:03:04.148Z,1.73
2022-09-01T08:06:08.169Z,1.52
2022-09-01T08:09:11.549Z,1.70
2022-09-01T08:12:14.879Z,2.10
2022-09-01T08:16:06.804Z,1.70
2022-09-01T08:18:57.763Z,1.83
2022-09-01T08:22:03.267Z,1.40
2022-09-01T08:25:26.964Z,1.83
2022-09-01T08:28:30.327Z,2.00
2022-09-01T08:31:32.973Z,1.70
2022-09-01T08:34:37.608Z,1.30
2022-09-01T08:37:40.673Z,1.30
2022-09-01T08:40:44.116Z,1.80
2022-09-01T08:44:19.615Z,1.42
2022-09-01T08:47:39.355Z,1.90
2022-09-01T08:50:51.167Z,1.30
2022-09-01T08:54:04.910Z,1.80
2022-09-01T08:57:10.564Z,1.88
2022-09-01T09:00:55.817Z,1.35
2022-09-01T09:04:02.996Z,1.40
2022-09-01T09:07:06.214Z,1.73
2022-09-01T09:10:12.743Z,1.75
2022-09-01T09:13:16.844Z,2.03
2022-09-01T09:16:22.444Z,2.05
2022-09-01T09:19:25.399Z,2.03
2022-09-01T09:22:27.594Z,1.73
2022-09-01T09:25:31.379Z,2.25
2022-09-01T09:28:33.919Z,2.13
2022-09-01T09:31:46.017Z,2.20
2022-09-01T09:34:49.092Z,2.10
2022-09-01T09:37:51.262Z,1.97
2022-09-01T09:41:27.014Z,1.52
2022-09-01T09:44:31.884Z,1.95
2022-09-01T09:47:45.155Z,1.73
2022-09-01T09:50:47.529Z,1.90
2022-09-01T09:53:50.541Z,1.70
2022-09-01T09:57:13.423Z,1.65
2022-09-01T10:00:15.801Z,1.50
2022-09-01T10:03:34.031Z,2.40
2022-09-01T10:06:42.323Z,1.13
2022-09-01T10:09:44.794Z,1.27
2022-09-01T10:12:47.001Z,1.70
2022-09-01T10:15:51.506Z,1.50
2022-09-01T10:18:54.334Z,1.65
2022-09-01T10:21:56.555Z,1.88
2022-09-01T10:25:00.789Z,1.63
2022-09-01T10:28:08.514Z,1.48
2022-09-01T10:31:11.022Z,1.63
2022-09-01T10:34:19.318Z,1.88
2022-09-01T10:37:22.871Z,1.70
2022-09-01T10:40:31.170Z,1.80
2022-09-01T10:43:43.848Z,1.60
2022-09-01T10:46:50.527Z,1.50
2022-09-01T10:49:53.049Z,2.50
2022-09-01T10:52:56.860Z,1.60
2022-09-01T10:56:18.783Z,1.50
2022-09-01T10:59:40.146Z,1.60
2022-09-01T11:03:29.854Z,1.30
2022-09-01T11:10:35.615Z,1.40
2022-09-01T11:13:37.892Z,1.30
2022-09-01T11:16:49.639Z,1.45
2022-09-01T11:20:00.732Z,2.00
2022-09-01T11:23:04.778Z,1.65
2022-09-01T11:26:25.506Z,1.38
2022-09-01T11:29:45.790Z,1.10
2022-09-01T11:32:50.397Z,1.17
2022-09-01T11:36:06.704Z,1.20
2022-09-01T11:39:23.194Z,1.27
2022-09-01T11:42:40.952Z,1.58
2022-09-01T11:45:58.268Z,1.87
2022-09-01T11:49:03.285Z,2.15
2022-09-01T11:52:06.012Z,1.73
2022-09-01T11:55:08.272Z,1.45
2022-09-01T11:58:15.743Z,1.33
2022-09-01T12:01:20.189Z,2.23
2022-09-01T12:04:23.772Z,1.33
2022-09-01T12:07:34.877Z,1.40
2022-09-01T12:10:38.476Z,1.35
2022-09-01T12:13:41.213Z,1.95
2022-09-01T12:16:43.392Z,1.30
2022-09-01T12:19:45.492Z,1.42
2022-09-01T12:22:48.097Z,1.73
2022-09-01T12:25:50.487Z,1.30
2022-09-01T12:28:53.260Z,1.05
2022-09-01T12:31:55.900Z,1.47
2022-09-01T12:35:04.277Z,1.10
2022-09-01T12:38:20.927Z,1.52
2022-09-01T12:41:38.925Z,1.40
2022-09-01T12:44:41.445Z,1.58
2022-09-01T12:47:48.453Z,1.50
2022-09-01T12:50:52.389Z,1.52
2022-09-01T12:54:04.512Z,1.40
2022-09-01T12:57:07.370Z,1.52
2022-09-01T13:00:12.802Z,1.40
2022-09-01T13:03:16.134Z,1.33
2022-09-01T13:06:18.460Z,2.90
2022-09-01T13:09:20.476Z,1.65
2022-09-01T13:12:22.509Z,1.90
2022-09-01T13:15:25.746Z,1.60
2022-09-01T13:18:28.447Z,1.80
2022-09-01T13:21:31.310Z,1.40
2022-09-01T13:24:34.063Z,1.27
2022-09-01T13:27:36.174Z,2.10
2022-09-01T13:30:38.774Z,2.92
2022-09-01T13:37:03.095Z,1.50
2022-09-01T13:40:07.498Z,1.55
2022-09-01T13:43:09.588Z,1.48
2022-09-01T13:46:12.467Z,1.63
2022-09-01T13:52:37.588Z,1.05
2022-09-01T13:55:40.172Z,2.00
2022-09-01T13:58:42.299Z,1.92
2022-09-01T14:01:44.376Z,1.70
2022-09-01T14:04:46.604Z,1.83
2022-09-01T14:07:49.181Z,1.50
2022-09-01T14:10:52.225Z,2.00
2022-09-01T14:13:54.225Z,3.50
2022-09-01T14:16:56.452Z,2.20
2022-09-01T14:19:58.566Z,1.33
2022-09-01T14:23:00.641Z,1.30
2022-09-01T14:26:02.711Z,1.90
2022-09-01T14:29:04.761Z,2.40
2022-09-01T14:32:07.959Z,2.42
2022-09-01T14:35:10.361Z,2.00
2022-09-01T14:38:13.812Z,1.60
2022-09-01T14:41:17.147Z,1.98
2022-09-01T14:44:19.266Z,2.20
2022-09-01T14:47:22.236Z,2.22
2022-09-01T14:50:24.866Z,2.60
2022-09-01T14:53:28.684Z,3.90
2022-09-01T14:56:30.884Z,4.88
2022-09-01T14:59:32.979Z,7.10
2022-09-01T15:02:34.997Z,6.20
2022-09-01T15:05:40.255Z,5.50
2022-09-01T15:08:42.657Z,6.47
2022-09-01T15:11:45.701Z,4.80
2022-09-01T15:14:47.751Z,3.40
2022-09-01T15:17:50.002Z,3.55
2022-09-01T15:20:53.910Z,2.90
2022-09-01T15:23:55.958Z,5.13
2022-09-01T15:26:57.991Z,2.90
2022-09-01T15:30:00.013Z,2.33
2022-09-01T15:33:02.190Z,2.63
2022-09-01T15:36:04.252Z,2.37
2022-09-01T15:39:08.093Z,2.50
2022-09-01T15:42:10.186Z,2.55
2022-09-01T15:45:14.947Z,2.80
2022-09-01T15:48:18.517Z,4.28
2022-09-01T15:51:20.514Z,3.50
2022-09-01T15:54:25.035Z,2.50
2022-09-01T15:57:29.121Z,2.75
2022-09-01T16:00:31.252Z,2.90
2022-09-01T16:03:33.325Z,3.60
2022-09-01T16:06:35.424Z,5.30
2022-09-01T16:09:37.504Z,1.98
2022-09-01T16:12:44.040Z,1.75
2022-09-01T16:15:54.993Z,1.80
2022-09-01T16:18:59.295Z,1.73
2022-09-01T16:22:10.531Z,1.73
2022-09-01T16:25:18.842Z,1.60
2022-09-01T16:28:20.914Z,1.50
2022-09-01T16:31:26.041Z,1.67
2022-09-01T16:34:28.691Z,1.30
2022-09-01T16:37:42.196Z,2.17
2022-09-01T16:40:49.642Z,2.47
2022-09-01T16:43:54.789Z,2.30
2022-09-01T16:46:59.858Z,2.55
2022-09-01T16:50:07.643Z,1.95
2022-09-01T16:53:17.967Z,1.67
2022-09-01T16:56:31.200Z,1.10
2022-09-01T16:59:45.289Z,1.23
2022-09-01T17:02:47.913Z,1.60
2022-09-01T17:05:56.389Z,1.70
2022-09-01T17:09:10.377Z,1.77
2022-09-01T17:12:12.386Z,1.92
2022-09-01T17:15:18.173Z,1.50
2022-09-01T17:18:32.503Z,1.80
2022-09-01T17:21:41.777Z,1.92
2022-09-01T17:24:49.129Z,1.40
2022-09-01T17:27:54.325Z,1.40
2022-09-01T17:31:17.767Z,3.22
2022-09-01T17:34:25.947Z,2.20
2022-09-01T17:37:39.358Z,2.15
2022-09-01T17:40:59.032Z,1.90
2022-09-01T17:44:07.180Z,1.60
2022-09-01T17:47:12.659Z,2.08
2022-09-01T17:50:20.740Z,2.13
2022-09-01T17:53:26.193Z,2.10
2022-09-01T17:56:42.438Z,2.10
2022-09-01T17:59:44.429Z,2.22
2022-09-01T18:02:46.792Z,1.77
2022-09-01T18:05:57.713Z,1.67
2022-09-01T18:09:00.228Z,2.80
2022-09-01T18:12:09.801Z,1.83
2022-09-01T18:15:13.609Z,1.90
2022-09-01T18:18:25.043Z,2.08
2022-09-01T18:21:31.438Z,1.70
2022-09-01T18:24:42.262Z,2.20
2022-09-01T18:27:46.679Z,1.90
2022-09-01T18:31:14.998Z,2.33
2022-09-01T18:34:17.105Z,1.55
2022-09-01T18:37:24.953Z,1.80
2022-09-01T18:40:29.578Z,1.63
2022-09-01T18:43:40.796Z,1.73
2022-09-01T18:46:46.632Z,2.00
2022-09-01T18:49:57.576Z,2.05
2022-09-01T18:53:10.015Z,2.10
2022-09-01T18:56:35.540Z,1.95
2022-09-01T19:00:00.481Z,1.60
2022-09-01T19:03:04.883Z,2.13
2022-09-01T19:06:12.856Z,2.25
2022-09-01T19:09:20.204Z,1.58
2022-09-01T19:12:25.996Z,1.90
2022-09-01T19:15:33.442Z,1.87
2022-09-01T19:18:41.399Z,1.83
2022-09-01T19:21:44.481Z,1.42
2022-09-01T19:25:22.568Z,1.60
2022-09-01T19:28:31.604Z,1.58
2022-09-01T19:31:34.932Z,1.00
2022-09-01T19:34:41.253Z,1.33
2022-09-01T19:37:46.460Z,1.80
2022-09-01T19:40:51.777Z,1.50
2022-09-01T19:44:08.338Z,1.67
2022-09-01T19:47:25.566Z,1.40
2022-09-01T19:50:33.353Z,1.70
2022-09-01T19:53:40.481Z,1.80
2022-09-01T19:56:57.630Z,1.50
2022-09-01T20:00:09.095Z,1.35
2022-09-01T20:03:14.281Z,1.10
2022-09-01T20:06:19.269Z,1.60
2022-09-01T20:09:41.950Z,1.33
2022-09-01T20:12:51.010Z,1.67
2022-09-01T20:16:16.293Z,1.80
2022-09-01T20:19:24.449Z,1.63
2022-09-01T20:22:35.386Z,1.38
2022-09-01T20:25:42.935Z,1.85
2022-09-01T20:29:03.116Z,2.30
2022-09-01T20:32:05.176Z,2.15
2022-09-01T20:35:14.559Z,2.20
2022-09-01T20:38:44.268Z,2.22
2022-09-01T20:42:09.160Z,1.60
2022-09-01T20:45:22.180Z,1.90
2022-09-01T20:48:25.633Z,1.90
2022-09-01T20:51:37.150Z,1.40
2022-09-01T20:54:42.616Z,1.75
2022-09-01T20:57:55.245Z,1.75
2022-09-01T21:01:00.213Z,1.60
2022-09-01T21:04:21.058Z,1.83
2022-09-01T21:07:32.336Z,1.47
2022-09-01T21:10:43.251Z,1.10
2022-09-01T21:14:03.890Z,1.38
2022-09-01T21:17:08.660Z,1.48
2022-09-01T21:20:30.234Z,1.15
2022-09-01T21:23:32.421Z,1.47
2022-09-01T21:26:36.541Z,1.17
2022-09-01T21:29:59.685Z,1.45
2022-09-01T21:33:03.029Z,1.58
2022-09-01T21:36:05.126Z,1.20
2022-09-01T21:39:07.116Z,1.20
2022-09-01T21:42:10.521Z,1.67
2022-09-01T21:45:13.564Z,1.35
2022-09-01T21:48:15.694Z,1.50
2022-09-01T21:51:17.684Z,1.40
2022-09-01T21:54:19.861Z,1.53
2022-09-01T21:57:23.138Z,1.70
2022-09-01T22:00:26.996Z,1.48
2022-09-01T22:03:29.115Z,1.20
2022-09-01T22:06:31.529Z,1.40
2022-09-01T22:09:33.537Z,1.10
2022-09-01T22:12:36.152Z,1.20
2022-09-01T22:15:42.404Z,1.20
2022-09-01T22:18:44.507Z,1.00
2022-09-01T22:21:46.869Z,1.00
2022-09-01T22:24:49.026Z,1.00
2022-09-01T22:27:51.108Z,1.05
2022-09-01T22:30:54.454Z,1.23
2022-09-01T22:33:56.991Z,1.23
2022-09-01T22:36:59.016Z,1.13
2022-09-01T22:40:01.186Z,1.20
2022-09-01T22:43:05.576Z,1.50
2022-09-01T22:46:07.781Z,1.45
2022-09-01T22:49:10.356Z,1.23
2022-09-01T22:52:12.367Z,1.00
2022-09-01T22:55:16.056Z,1.17
2022-09-01T22:58:19.245Z,1.00
2022-09-01T23:01:22.345Z,1.50
2022-09-01T23:04:25.004Z,2.00
2022-09-01T23:07:27.054Z,1.38
2022-09-01T23:10:29.168Z,1.20
2022-09-01T23:13:31.216Z,1.70
2022-09-01T23:16:36.975Z,2.97
2022-09-01T23:19:39.086Z,2.95
2022-09-01T23:22:41.948Z,2.85
2022-09-01T23:25:44.300Z,2.97
2022-09-01T23:28:46.537Z,2.50
2022-09-01T23:31:48.700Z,2.72
2022-09-01T23:34:51.109Z,2.80
2022-09-01T23:37:53.114Z,2.15
2022-09-01T23:40:56.016Z,1.60
2022-09-01T23:43:59.162Z,1.40
2022-09-01T23:47:01.173Z,1.50
2022-09-01T23:50:04.222Z,1.10
2022-09-01T23:53:06.257Z,1.23
2022-09-01T23:56:10.226Z,1.10
2022-09-01T23:59:12.281Z,1.17
